createdAt,value
2018-11-22T12:16:44.348Z,29.07
2018-11-22T12:21:38.185Z,12.05
2018-11-22T12:26:33.037Z,31.52
2018-11-22T12:31:26.620Z,11.40
2018-11-22T12:36:21.745Z,12.63
2018-11-22T12:41:15.270Z,28.15
2018-11-22T12:46:08.760Z,13.18
2018-11-22T12:51:02.343Z,13.75
2018-11-22T12:55:59.975Z,10.63
2018-11-22T13:00:54.004Z,9.58
2018-11-22T13:05:47.487Z,13.45
2018-11-22T13:10:41.237Z,7.37
2018-11-22T13:15:34.795Z,10.40
2018-11-22T13:20:28.268Z,10.38
2018-11-22T13:25:23.625Z,21.10
2018-11-22T13:30:18.973Z,8.93
2018-11-22T13:35:13.625Z,13.00
2018-11-22T13:40:08.837Z,13.68
2018-11-22T13:45:06.748Z,14.83
2018-11-22T13:50:00.569Z,40.58
2018-11-22T13:54:54.488Z,24.40
2018-11-22T13:59:48.118Z,14.63
2018-11-22T14:04:42.208Z,13.65
2018-11-22T14:09:35.782Z,21.37
2018-11-22T14:14:29.273Z,15.85
2018-11-22T14:19:23.034Z,13.62
2018-11-22T14:24:17.551Z,17.67
2018-11-22T14:34:21.777Z,9.78
2018-11-22T14:39:15.723Z,19.02
2018-11-22T14:44:09.229Z,19.82
2018-11-22T14:49:04.748Z,18.27
2018-11-22T14:53:58.564Z,15.45
2018-11-22T14:58:52.508Z,18.40
2018-11-22T15:03:46.835Z,15.00
2018-11-22T15:08:40.423Z,22.00
2018-11-22T15:13:34.283Z,24.10
2018-11-22T15:18:27.797Z,15.28
2018-11-22T15:23:21.268Z,14.28
2018-11-22T15:28:14.860Z,13.10
2018-11-22T15:33:08.446Z,21.12
2018-11-22T15:38:02.042Z,11.85
2018-11-22T15:42:57.794Z,10.30
2018-11-22T15:47:51.471Z,18.37
2018-11-22T15:52:45.231Z,17.40
2018-11-22T15:57:40.012Z,12.58
2018-11-22T16:02:33.474Z,12.90
2018-11-22T16:07:27.143Z,26.82
2018-11-22T16:12:21.223Z,24.00
2018-11-22T16:17:14.883Z,9.10
2018-11-22T16:22:09.172Z,17.95
2018-11-22T16:27:03.378Z,7.00
2018-11-22T16:31:56.886Z,11.83
2018-11-22T16:36:50.330Z,8.35
2018-11-22T16:41:43.941Z,4.65
2018-11-22T16:46:37.434Z,12.30
2018-11-22T16:51:31.085Z,29.50
2018-11-22T16:56:24.820Z,11.83
2018-11-22T17:01:18.279Z,9.05
2018-11-22T17:06:11.865Z,12.37
2018-11-22T17:11:05.696Z,16.45
2018-11-22T17:15:59.590Z,19.75
2018-11-22T17:26:09.285Z,9.55
2018-11-22T17:31:02.941Z,17.00
2018-11-22T17:35:56.913Z,17.00
2018-11-22T17:40:51.418Z,14.70
2018-11-22T17:45:47.684Z,10.50
2018-11-22T17:50:43.467Z,12.40
2018-11-22T17:55:38.648Z,16.82
2018-11-22T18:00:34.888Z,18.90
2018-11-22T18:05:28.802Z,22.00
2018-11-22T18:10:24.079Z,21.87
2018-11-22T18:15:19.032Z,45.73
2018-11-22T18:20:16.232Z,25.72
2018-11-22T18:25:12.850Z,22.50
2018-11-22T18:30:09.426Z,18.17
2018-11-22T18:35:03.896Z,23.98
2018-11-22T18:39:58.381Z,31.25
2018-11-22T18:44:52.189Z,28.15
2018-11-22T18:49:48.222Z,42.67
2018-11-22T18:54:41.914Z,33.78
2018-11-22T18:59:35.823Z,45.90
2018-11-22T19:04:29.348Z,27.05
2018-11-22T19:09:23.171Z,29.27
2018-11-22T19:14:16.962Z,16.07
2018-11-22T19:19:10.491Z,23.40
2018-11-22T19:24:04.252Z,34.70
2018-11-22T19:28:57.699Z,24.02
2018-11-22T19:33:52.167Z,30.95
2018-11-22T19:38:45.665Z,21.10
2018-11-22T19:43:39.696Z,19.40
2018-11-22T19:48:33.357Z,19.15
2018-11-22T19:53:27.212Z,21.55
2018-11-22T19:58:20.757Z,30.85
2018-11-22T20:03:15.506Z,30.32
2018-11-22T20:08:12.970Z,34.83
2018-11-22T20:13:07.131Z,38.25
2018-11-22T20:18:01.701Z,52.13
2018-11-22T20:22:56.007Z,37.28
2018-11-22T20:27:51.175Z,27.45
2018-11-22T20:32:44.911Z,26.02
2018-11-22T20:37:38.876Z,30.23
2018-11-22T20:42:32.661Z,26.00
2018-11-22T20:47:26.405Z,30.45
2018-11-22T20:52:20.288Z,28.35
2018-11-22T20:57:14.787Z,35.55
2018-11-22T21:02:08.309Z,35.00
2018-11-22T21:07:02.228Z,29.92
2018-11-22T21:11:56.603Z,27.37
2018-11-22T21:16:50.108Z,30.90
2018-11-22T21:21:43.503Z,31.55
2018-11-22T21:26:37.113Z,28.27
2018-11-22T21:31:30.929Z,26.57
2018-11-22T21:36:24.512Z,31.95
2018-11-22T21:41:18.362Z,28.27
2018-11-22T21:46:11.805Z,34.80
2018-11-22T21:51:05.416Z,21.17
2018-11-22T21:55:58.951Z,25.97
2018-11-22T22:00:52.418Z,24.80
2018-11-22T22:05:46.082Z,24.30
2018-11-22T22:10:39.624Z,24.82
2018-11-22T22:15:34.098Z,24.32
2018-11-22T22:20:29.231Z,28.47
2018-11-22T22:25:23.622Z,28.35
2018-11-22T22:30:19.468Z,25.20
2018-11-22T22:35:13.490Z,24.92
2018-11-22T22:40:09.653Z,27.87
2018-11-22T22:45:04.179Z,26.10
2018-11-22T22:49:58.153Z,24.55
2018-11-22T22:54:51.667Z,25.08
2018-11-22T22:59:45.113Z,26.45
2018-11-22T23:04:38.632Z,25.60
2018-11-22T23:09:32.135Z,25.92
2018-11-22T23:14:26.184Z,23.77
2018-11-22T23:19:19.706Z,23.10
2018-11-22T23:24:13.454Z,25.30
2018-11-22T23:29:06.973Z,26.60
2018-11-22T23:34:00.439Z,29.20
2018-11-22T23:38:54.328Z,33.15
2018-11-22T23:43:47.822Z,27.25
2018-11-22T23:48:41.333Z,30.70
2018-11-22T23:53:34.815Z,27.07
2018-11-22T23:58:29.370Z,27.15
